Time,TemperatureF,DewpointF,PressureIn,WindDirection,WindDirectionDegrees,WindSpeedMPH,WindSpeedGustMPH,Humidity,HourlyPrecipIn,Conditions,Clouds,dailyrainin,SoftwareType,DateUTC
2013-04-25 00:00:00,51.8,17.0,29.52,West,266,2.0,9.0,25,0.00,,,0.00,weatherlink.com 1.10,2013-04-25 07:00:00,
2013-04-25 00:15:00,51.5,18.0,29.53,SSW,203,3.0,11.0,27,0.00,,,0.00,weatherlink.com 1.10,2013-04-25 07:15:00,
2013-04-25 00:30:00,51.1,20.0,29.53,SSE,160,1.0,11.0,29,0.00,,,0.00,weatherlink.com 1.10,2013-04-25 07:30:00,
2013-04-25 00:45:00,50.7,21.0,29.52,East,82,2.0,10.0,31,0.00,,,0.00,weatherlink.com 1.10,2013-04-25 07:45:00,
2013-04-25 01:00:00,50.3,21.0,29.51,NE,46,1.0,7.0,32,0.00,,,0.00,weatherlink.com 1.10,2013-04-25 08:00:00,
2013-04-25 01:15:00,50.6,20.0,29.50,NNW,348,10.0,12.0,30,0.00,,,0.00,weatherlink.com 1.10,2013-04-25 08:15:00,
2013-04-25 01:30:00,51.0,19.0,29.50,ENE,77,9.0,11.0,28,0.00,,,0.00,weatherlink.com 1.10,2013-04-25 08:30:00,
2013-04-25 01:45:00,51.0,18.0,29.50,NW,305,1.0,13.0,27,0.00,,,0.00,weatherlink.com 1.10,2013-04-25 08:45:00,
2013-04-25 02:00:00,50.8,19.0,29.49,NE,36,3.0,9.0,28,0.00,,,0.00,weatherlink.com 1.10,2013-04-25 09:00:00,
2013-04-25 02:15:00,50.7,18.0,29.48,NNE,33,5.0,8.0,27,0.00,,,0.00,weatherlink.com 1.10,2013-04-25 09:15:00,
2013-04-25 02:30:00,50.4,18.0,29.49,NNE,15,3.0,5.0,28,0.00,,,0.00,weatherlink.com 1.10,2013-04-25 09:30:00,
2013-04-25 02:45:00,49.6,21.0,29.48,North,4,4.0,4.0,32,0.00,,,0.00,weatherlink.com 1.10,2013-04-25 09:45:00,
2013-04-25 03:00:00,49.1,22.0,29.48,NW,308,3.0,9.0,34,0.00,,,0.00,weatherlink.com 1.10,2013-04-25 10:00:00,
2013-04-25 03:15:00,48.7,22.0,29.48,SSE,148,1.0,6.0,35,0.00,,,0.00,weatherlink.com 1.10,2013-04-25 10:15:00,
2013-04-25 03:30:00,48.5,22.0,29.48,SSW,203,6.0,9.0,36,0.00,,,0.00,weatherlink.com 1.10,2013-04-25 10:30:00,
2013-04-25 03:45:00,48.3,23.0,29.48,SSE,163,1.0,10.0,37,0.00,,,0.00,weatherlink.com 1.10,2013-04-25 10:45:00,
2013-04-25 04:00:00,48.0,23.0,29.48,South,180,8.0,9.0,38,0.00,,,0.00,weatherlink.com 1.10,2013-04-25 11:00:00,
2013-04-25 04:15:00,48.1,24.0,29.48,West,263,2.0,16.0,39,0.00,,,0.00,weatherlink.com 1.10,2013-04-25 11:15:00,
2013-04-25 04:30:00,47.8,24.0,29.48,NNW,330,1.0,17.0,40,0.00,,,0.00,weatherlink.com 1.10,2013-04-25 11:30:00,
2013-04-25 04:45:00,47.3,24.0,29.46,West,267,3.0,8.0,41,0.00,,,0.00,weatherlink.com 1.10,2013-04-25 11:45:00,
2013-04-25 05:00:00,47.1,24.0,29.47,WSW,238,8.0,11.0,40,0.00,,,0.00,weatherlink.com 1.10,2013-04-25 12:00:00,
2013-04-25 05:15:00,46.8,23.0,29.47,North,8,5.0,12.0,40,0.00,,,0.00,weatherlink.com 1.10,2013-04-25 12:15:00,
2013-04-25 05:31:00,46.7,24.0,29.46,WNW,303,3.0,6.0,41,0.00,,,0.00,weatherlink.com 1.10,2013-04-25 12:31:00,
2013-04-25 05:46:00,46.5,23.0,29.47,ENE,65,2.0,9.0,40,0.00,,,0.00,weatherlink.com 1.10,2013-04-25 12:46:00,
2013-04-25 06:01:00,46.8,22.0,29.47,South,179,2.0,8.0,38,0.00,,,0.00,weatherlink.com 1.10,2013-04-25 13:01:00,
2013-04-25 06:16:00,46.9,22.0,29.48,ENE,71,1.0,8.0,37,0.00,,,0.00,weatherlink.com 1.10,2013-04-25 13:16:00,
2013-04-25 06:31:00,47.7,22.0,29.48,NNE,12,8.0,10.0,36,0.00,,,0.00,weatherlink.com 1.10,2013-04-25 13:31:00,
2013-04-25 06:46:00,48.7,22.0,29.48,ENE,76,2.0,10.0,35,0.00,,,0.00,weatherlink.com 1.10,2013-04-25 13:46:00,
2013-04-25 07:01:00,49.0,21.0,29.47,East,81,8.0,10.0,33,0.00,,,0.00,weatherlink.com 1.10,2013-04-25 14:01:00,
2013-04-25 07:16:00,48.8,21.0,29.48,ENE,68,3.0,9.0,33,0.00,,,0.00,weatherlink.com 1.10,2013-04-25 14:16:00,
2013-04-25 07:31:00,49.2,20.0,29.49,West,263,6.0,9.0,31,0.00,,,0.00,weatherlink.com 1.10,2013-04-25 14:31:00,
2013-04-25 07:46:00,48.7,21.0,29.50,SW,226,4.0,15.0,33,0.00,,,0.00,weatherlink.com 1.10,2013-04-25 14:46:00,
2013-04-25 08:01:00,50.7,23.0,29.49,WNW,290,4.0,8.0,34,0.00,,,0.00,weatherlink.com 1.10,2013-04-25 15:01:00,
2013-04-25 08:16:00,50.3,23.0,29.50,South,169,2.0,12.0,35,0.00,,,0.00,weatherlink.com 1.10,2013-04-25 15:16:00,
2013-04-25 08:31:00,50.2,24.0,29.49,WSW,250,2.0,10.0,36,0.00,,,0.00,weatherlink.com 1.10,2013-04-25 15:31:00,
2013-04-25 08:46:00,49.5,23.0,29.50,SW,215,10.0,20.0,36,0.00,,,0.00,weatherlink.com 1.10,2013-04-25 15:46:00,
2013-04-25 09:01:00,49.7,23.0,29.48,SE,128,3.0,20.0,35,0.00,,,0.00,weatherlink.com 1.10,2013-04-25 16:01:00,
2013-04-25 09:16:00,51.3,23.0,29.49,NNE,16,1.0,12.0,33,0.00,,,0.00,weatherlink.com 1.10,2013-04-25 16:16:00,
2013-04-25 09:31:00,52.1,24.0,29.49,WNW,293,6.0,8.0,33,0.00,,,0.00,weatherlink.com 1.10,2013-04-25 16:31:00,
2013-04-25 09:46:00,52.1,23.0,29.49,SE,131,5.0,22.0,32,0.00,,,0.00,weatherlink.com 1.10,2013-04-25 16:46:00,
2013-04-25 10:01:00,51.8,23.0,29.49,West,262,11.0,21.0,32,0.00,,,0.00,weatherlink.com 1.10,2013-04-25 17:01:00,
2013-04-25 10:16:00,53.0,23.0,29.49,WSW,242,15.0,19.0,31,0.00,,,0.00,weatherlink.com 1.10,2013-04-25 17:16:00,
2013-04-25 10:31:00,55.2,23.0,29.48,SSE,155,6.0,14.0,29,0.00,,,0.00,weatherlink.com 1.10,2013-04-25 17:31:00,
2013-04-25 10:46:00,54.7,24.0,29.50,West,274,8.0,32.0,30,0.00,,,0.00,weatherlink.com 1.10,2013-04-25 17:46:00,
2013-04-25 11:02:00,54.0,23.0,29.49,SW,233,10.0,35.0,30,0.00,,,0.00,weatherlink.com 1.10,2013-04-25 18:02:00,
2013-04-25 11:16:00,53.6,23.0,29.50,SE,140,19.0,33.0,31,0.00,,,0.00,weatherlink.com 1.10,2013-04-25 18:16:00,
2013-04-25 11:31:00,53.8,22.0,29.48,West,273,7.0,33.0,29,0.00,,,0.00,weatherlink.com 1.10,2013-04-25 18:31:00,
2013-04-25 11:46:00,54.5,21.0,29.48,SE,142,3.0,24.0,27,0.00,,,0.00,weatherlink.com 1.10,2013-04-25 18:46:00,
2013-04-25 12:01:00,53.8,18.0,29.48,SW,216,26.0,29.0,24,0.00,,,0.00,weatherlink.com 1.10,2013-04-25 19:01:00,
2013-04-25 12:16:00,55.1,18.0,29.48,WNW,302,5.0,28.0,23,0.00,,,0.00,weatherlink.com 1.10,2013-04-25 19:16:00,
2013-04-25 12:31:00,54.6,19.0,29.48,WSW,250,4.0,27.0,25,0.00,,,0.00,weatherlink.com 1.10,2013-04-25 19:31:00,
2013-04-25 12:46:00,54.9,19.0,29.48,NNE,30,4.0,26.0,24,0.00,,,0.00,weatherlink.com 1.10,2013-04-25 19:46:00,
2013-04-25 13:01:00,54.9,17.0,29.48,NW,305,4.0,28.0,22,0.00,,,0.00,weatherlink.com 1.10,2013-04-25 20:01:00,
2013-04-25 13:16:00,54.5,15.0,29.49,West,275,17.0,35.0,21,0.00,,,0.00,weatherlink.com 1.10,2013-04-25 20:16:00,
2013-04-25 13:31:00,54.1,14.0,29.49,SW,218,8.0,33.0,20,0.00,,,0.00,weatherlink.com 1.10,2013-04-25 20:31:00,
2013-04-25 13:46:00,54.0,11.0,29.49,WSW,252,11.0,48.0,18,0.00,,,0.00,weatherlink.com 1.10,2013-04-25 20:46:00,
2013-04-25 14:01:00,53.7,10.0,29.50,SSW,193,20.0,42.0,17,0.00,,,0.00,weatherlink.com 1.10,2013-04-25 21:01:00,
2013-04-25 14:16:00,53.7,11.0,29.48,SSW,210,15.0,35.0,18,0.00,,,0.00,weatherlink.com 1.10,2013-04-25 21:16:00,
2013-04-25 14:31:00,54.3,14.0,29.48,NW,305,19.0,31.0,20,0.00,,,0.00,weatherlink.com 1.10,2013-04-25 21:31:00,
2013-04-25 14:46:00,53.9,19.0,29.49,WNW,287,7.0,34.0,25,0.00,,,0.00,weatherlink.com 1.10,2013-04-25 21:46:00,
2013-04-25 15:01:00,55.1,21.0,29.48,WSW,239,8.0,23.0,27,0.00,,,0.00,weatherlink.com 1.10,2013-04-25 22:01:00,
2013-04-25 15:16:00,54.7,23.0,29.48,SSW,200,11.0,31.0,29,0.00,,,0.00,weatherlink.com 1.10,2013-04-25 22:16:00,
2013-04-25 15:31:00,54.5,24.0,29.48,SW,233,15.0,19.0,31,0.00,,,0.00,weatherlink.com 1.10,2013-04-25 22:31:00,
2013-04-25 15:46:00,53.7,24.0,29.48,WSW,248,14.0,23.0,31,0.00,,,0.00,weatherlink.com 1.10,2013-04-25 22:46:00,
2013-04-25 16:01:00,53.2,23.0,29.49,SW,236,13.0,22.0,31,0.00,,,0.00,weatherlink.com 1.10,2013-04-25 23:01:00,
2013-04-25 16:16:00,52.8,22.0,29.49,WSW,243,10.0,25.0,30,0.00,,,0.00,weatherlink.com 1.10,2013-04-25 23:16:00,
2013-04-25 16:31:00,52.1,21.0,29.49,NW,305,7.0,29.0,29,0.00,,,0.00,weatherlink.com 1.10,2013-04-25 23:31:00,
2013-04-25 16:46:00,52.3,20.0,29.49,West,264,12.0,28.0,28,0.00,,,0.00,weatherlink.com 1.10,2013-04-25 23:46:00,
2013-04-25 17:01:00,52.0,23.0,29.49,NNW,339,9.0,26.0,32,0.00,,,0.00,weatherlink.com 1.10,2013-04-26 00:01:00,
2013-04-25 17:17:00,52.0,24.0,29.50,West,260,15.0,28.0,33,0.00,,,0.00,weatherlink.com 1.10,2013-04-26 00:17:00,
2013-04-25 17:32:00,51.2,24.0,29.49,NW,311,7.0,23.0,34,0.00,,,0.00,weatherlink.com 1.10,2013-04-26 00:32:00,
2013-04-25 17:47:00,50.3,25.0,29.50,SW,229,16.0,25.0,37,0.00,,,0.00,weatherlink.com 1.10,2013-04-26 00:47:00,
2013-04-25 18:02:00,49.5,25.0,29.50,WSW,257,16.0,30.0,38,0.00,,,0.00,weatherlink.com 1.10,2013-04-26 01:02:00,
2013-04-25 18:17:00,49.0,24.0,29.50,WNW,284,31.0,35.0,37,0.00,,,0.00,weatherlink.com 1.10,2013-04-26 01:17:00,
2013-04-25 18:32:00,47.7,24.0,29.51,SW,233,13.0,27.0,39,0.00,,,0.00,weatherlink.com 1.10,2013-04-26 01:32:00,
2013-04-25 18:47:00,46.3,22.0,29.51,West,274,17.0,33.0,39,0.00,,,0.00,weatherlink.com 1.10,2013-04-26 01:47:00,
2013-04-25 19:02:00,45.6,22.0,29.52,West,278,15.0,33.0,39,0.00,,,0.00,weatherlink.com 1.10,2013-04-26 02:02:00,
2013-04-25 19:17:00,45.2,20.0,29.52,SSW,202,11.0,27.0,37,0.00,,,0.00,weatherlink.com 1.10,2013-04-26 02:17:00,
2013-04-25 19:32:00,44.8,19.0,29.54,NNW,333,11.0,29.0,35,0.00,,,0.00,weatherlink.com 1.10,2013-04-26 02:32:00,
2013-04-25 19:47:00,44.6,18.0,29.54,SW,236,21.0,25.0,34,0.00,,,0.00,weatherlink.com 1.10,2013-04-26 02:47:00,
2013-04-25 20:02:00,44.3,18.0,29.56,SW,236,18.0,28.0,35,0.00,,,0.00,weatherlink.com 1.10,2013-04-26 03:02:00,
2013-04-25 20:17:00,44.3,18.0,29.57,SW,226,12.0,27.0,35,0.00,,,0.00,weatherlink.com 1.10,2013-04-26 03:17:00,
2013-04-25 20:32:00,44.1,19.0,29.58,WSW,245,12.0,24.0,36,0.00,,,0.00,weatherlink.com 1.10,2013-04-26 03:32:00,
2013-04-25 20:47:00,43.9,19.0,29.59,WSW,257,9.0,21.0,37,0.00,,,0.00,weatherlink.com 1.10,2013-04-26 03:47:00,
2013-04-25 21:02:00,43.7,21.0,29.60,WSW,242,12.0,22.0,41,0.00,,,0.00,weatherlink.com 1.10,2013-04-26 04:02:00,
2013-04-25 21:17:00,43.7,21.0,29.60,WSW,257,17.0,21.0,41,0.00,,,0.00,weatherlink.com 1.10,2013-04-26 04:17:00,
2013-04-25 21:32:00,43.4,22.0,29.61,SW,235,14.0,22.0,42,0.00,,,0.00,weatherlink.com 1.10,2013-04-26 04:32:00,
2013-04-25 21:47:00,43.4,22.0,29.62,NW,304,5.0,21.0,43,0.00,,,0.00,weatherlink.com 1.10,2013-04-26 04:47:00,
2013-04-25 22:02:00,43.2,24.0,29.62,West,262,11.0,20.0,46,0.00,,,0.00,weatherlink.com 1.10,2013-04-26 05:02:00,
2013-04-25 22:17:00,43.9,16.0,29.62,NE,46,6.0,17.0,33,0.00,,,0.00,weatherlink.com 1.10,2013-04-26 05:17:00,
2013-04-25 22:32:00,44.7,6.0,29.63,WSW,237,6.0,11.0,20,0.00,,,0.00,weatherlink.com 1.10,2013-04-26 05:32:00,
2013-04-25 22:47:00,44.7,2.0,29.64,SW,226,6.0,9.0,17,0.00,,,0.00,weatherlink.com 1.10,2013-04-26 05:47:00,
2013-04-25 23:03:00,44.6,2.0,29.65,SE,131,3.0,7.0,17,0.00,,,0.00,weatherlink.com 1.10,2013-04-26 06:03:00,
2013-04-25 23:18:00,44.3,-1.0,29.65,SSE,164,3.0,6.0,15,0.00,,,0.00,weatherlink.com 1.10,2013-04-26 06:18:00,
2013-04-25 23:33:00,44.5,6.0,29.65,West,259,1.0,5.0,20,0.00,,,0.00,weatherlink.com 1.10,2013-04-26 06:33:00,
2013-04-25 23:48:00,44.6,-4.0,29.65,SW,215,3.0,7.0,13,0.00,,,0.00,weatherlink.com 1.10,2013-04-26 06:48:00,